createdAt,value
2023-01-17T00:01:46.872Z,2.80
2023-01-17T00:04:32.693Z,2.80
2023-01-17T00:07:18.056Z,2.80
2023-01-17T00:09:53.723Z,2.80
2023-01-17T00:12:22.786Z,2.80
2023-01-17T00:14:49.798Z,2.80
2023-01-17T00:17:16.855Z,2.80
2023-01-17T00:20:02.085Z,2.80
2023-01-17T00:22:48.528Z,2.80
2023-01-17T00:25:34.914Z,2.70
2023-01-17T00:28:01.905Z,2.70
2023-01-17T00:30:28.936Z,2.70
2023-01-17T00:32:55.852Z,2.70
2023-01-17T00:35:23.885Z,2.60
2023-01-17T00:38:00.253Z,2.70
2023-01-17T00:40:27.249Z,2.70
2023-01-17T00:42:54.167Z,2.60
2023-01-17T00:45:39.959Z,2.60
2023-01-17T00:48:25.205Z,2.60
2023-01-17T00:51:10.683Z,2.60
2023-01-17T00:53:56.079Z,2.50
2023-01-17T00:56:41.362Z,2.60
2023-01-17T00:59:26.752Z,2.60
2023-01-17T01:02:12.275Z,2.50
2023-01-17T01:04:57.586Z,2.50
2023-01-17T01:07:43.053Z,2.50
2023-01-17T01:10:28.791Z,2.50
2023-01-17T01:13:14.217Z,2.50
2023-01-17T01:15:59.597Z,2.50
2023-01-17T01:18:44.991Z,2.50
2023-01-17T01:21:30.173Z,2.50
2023-01-17T01:24:15.514Z,2.50
2023-01-17T01:27:00.805Z,2.50
2023-01-17T01:29:46.124Z,2.40
2023-01-17T01:32:31.457Z,2.40
2023-01-17T01:34:58.463Z,2.40
2023-01-17T01:37:25.406Z,2.40
2023-01-17T01:39:52.311Z,2.40
2023-01-17T01:42:19.302Z,2.40
2023-01-17T01:44:51.245Z,2.40
2023-01-17T01:47:24.232Z,2.40
2023-01-17T01:49:51.417Z,2.30
2023-01-17T01:52:19.590Z,2.40
2023-01-17T01:54:55.659Z,2.30
2023-01-17T01:57:23.367Z,2.30
2023-01-17T01:59:53.503Z,2.30
2023-01-17T02:02:20.956Z,2.30
2023-01-17T02:04:48.380Z,2.30
2023-01-17T02:07:21.453Z,2.20
2023-01-17T02:09:48.578Z,2.20
2023-01-17T02:12:15.542Z,2.20
2023-01-17T02:14:42.791Z,2.20
2023-01-17T02:17:15.833Z,2.20
2023-01-17T02:20:01.305Z,2.20
2023-01-17T02:22:28.257Z,2.20
2023-01-17T02:24:57.938Z,2.20
2023-01-17T02:27:26.040Z,2.20
2023-01-17T02:30:11.758Z,2.10
2023-01-17T02:32:53.856Z,2.10
2023-01-17T02:35:29.930Z,2.10
2023-01-17T02:38:15.787Z,2.10
2023-01-17T02:40:48.024Z,2.10
2023-01-17T02:43:15.885Z,2.10
2023-01-17T02:45:42.821Z,2.10
2023-01-17T02:48:11.690Z,2.10
2023-01-17T02:50:50.286Z,2.10
2023-01-17T02:53:29.173Z,2.10
2023-01-17T02:56:21.357Z,2.10
2023-01-17T02:59:06.586Z,2.00
2023-01-17T03:01:35.192Z,2.10
2023-01-17T03:04:04.815Z,2.00
2023-01-17T03:06:34.839Z,2.00
2023-01-17T03:09:02.241Z,2.00
2023-01-17T03:11:29.178Z,2.00
2023-01-17T03:13:59.556Z,2.00
2023-01-17T03:16:27.765Z,2.00
2023-01-17T03:18:54.922Z,2.00
2023-01-17T03:21:22.345Z,1.90
2023-01-17T03:23:49.577Z,1.90
2023-01-17T03:26:16.666Z,1.90
2023-01-17T03:28:43.648Z,1.90
2023-01-17T03:31:14.096Z,1.90
2023-01-17T03:33:41.016Z,1.90
2023-01-17T03:36:08.137Z,1.90
2023-01-17T03:38:35.197Z,1.90
2023-01-17T03:41:02.155Z,1.90
2023-01-17T03:43:29.119Z,1.80
2023-01-17T03:46:06.463Z,1.80
2023-01-17T03:48:33.944Z,1.80
2023-01-17T03:51:00.832Z,1.80
2023-01-17T03:53:27.806Z,1.90
2023-01-17T03:55:54.788Z,1.80
2023-01-17T03:58:21.845Z,1.80
2023-01-17T04:00:48.875Z,1.80
2023-01-17T04:03:15.871Z,1.80
2023-01-17T04:05:42.749Z,1.80
2023-01-17T04:08:10.052Z,1.80
2023-01-17T04:10:37.329Z,1.80
2023-01-17T04:13:04.414Z,1.80
2023-01-17T04:15:31.379Z,1.90
2023-01-17T04:17:58.572Z,1.80
2023-01-17T04:20:31.729Z,1.80
2023-01-17T04:22:58.793Z,1.80
2023-01-17T04:25:25.998Z,1.80
2023-01-17T04:27:53.575Z,1.80
2023-01-17T04:30:20.636Z,1.80
2023-01-17T04:32:47.586Z,1.80
2023-01-17T04:35:14.656Z,1.80
2023-01-17T04:37:41.624Z,1.80
2023-01-17T04:40:09.074Z,1.80
2023-01-17T04:42:36.055Z,1.70
2023-01-17T04:45:03.223Z,1.70
2023-01-17T04:47:30.202Z,1.70
2023-01-17T04:49:57.194Z,1.70
2023-01-17T04:52:25.670Z,1.70
2023-01-17T04:54:53.104Z,1.80
2023-01-17T04:57:20.237Z,1.80
2023-01-17T04:59:47.469Z,1.80
2023-01-17T05:02:15.123Z,1.80
2023-01-17T05:04:42.126Z,1.80
2023-01-17T05:07:09.202Z,1.90
2023-01-17T05:09:36.127Z,1.90
2023-01-17T05:12:03.136Z,1.90
2023-01-17T05:14:30.185Z,1.90
2023-01-17T05:16:57.670Z,1.90
2023-01-17T05:19:25.573Z,1.90
2023-01-17T05:21:52.744Z,2.00
2023-01-17T05:24:19.893Z,1.90
2023-01-17T05:26:54.803Z,3.40
2023-01-17T05:29:21.921Z,1.90
2023-01-17T05:31:48.960Z,1.90
2023-01-17T05:34:15.995Z,2.00
2023-01-17T05:36:42.946Z,1.90
2023-01-17T05:39:09.912Z,2.00
2023-01-17T05:41:36.834Z,2.00
2023-01-17T05:44:03.776Z,2.00
2023-01-17T05:46:30.836Z,2.00
2023-01-17T05:48:57.835Z,2.00
2023-01-17T05:51:24.712Z,2.00
2023-01-17T05:53:51.705Z,2.00
2023-01-17T05:56:18.641Z,2.00
2023-01-17T05:58:45.544Z,2.00
2023-01-17T06:01:12.591Z,2.00
2023-01-17T06:03:39.604Z,2.00
2023-01-17T06:06:06.797Z,2.00
2023-01-17T06:08:33.886Z,2.00
2023-01-17T06:11:00.841Z,2.00
2023-01-17T06:13:27.846Z,2.00
2023-01-17T06:15:57.875Z,2.00
2023-01-17T06:18:24.957Z,2.00
2023-01-17T06:20:55.302Z,2.00
2023-01-17T06:23:22.845Z,2.00
2023-01-17T06:25:49.863Z,2.10
2023-01-17T06:28:18.136Z,2.00
2023-01-17T06:30:45.532Z,2.00
2023-01-17T06:33:13.066Z,2.00
2023-01-17T06:35:44.565Z,2.00
2023-01-17T06:38:11.635Z,2.00
2023-01-17T06:40:38.714Z,1.90
2023-01-17T06:43:05.932Z,1.90
2023-01-17T06:45:34.176Z,1.90
2023-01-17T06:48:01.855Z,1.90
2023-01-17T06:50:28.787Z,1.90
2023-01-17T06:52:57.398Z,1.90
2023-01-17T06:55:24.689Z,1.80
2023-01-17T06:57:51.690Z,1.80
2023-01-17T07:00:18.904Z,1.70
2023-01-17T07:02:49.440Z,1.70
2023-01-17T07:05:17.384Z,1.70
2023-01-17T07:07:45.226Z,1.70
2023-01-17T07:10:13.405Z,1.60
2023-01-17T07:12:40.374Z,1.60
2023-01-17T07:15:07.925Z,1.00
2023-01-17T07:17:35.232Z,1.60
2023-01-17T07:20:02.180Z,1.60
2023-01-17T07:22:29.102Z,1.60
2023-01-17T07:24:58.915Z,1.60
2023-01-17T07:27:26.323Z,1.60
2023-01-17T07:29:54.279Z,1.60
2023-01-17T07:32:21.541Z,1.60
2023-01-17T07:34:48.560Z,1.60
2023-01-17T07:37:15.660Z,1.60
2023-01-17T07:39:42.798Z,1.60
2023-01-17T07:42:09.853Z,1.60
2023-01-17T07:44:36.790Z,1.60
2023-01-17T07:47:04.484Z,1.50
2023-01-17T07:49:31.422Z,1.50
2023-01-17T07:51:58.441Z,1.50
2023-01-17T07:54:25.440Z,1.50
2023-01-17T07:56:52.454Z,1.50
2023-01-17T07:59:19.470Z,1.50
2023-01-17T08:01:46.632Z,1.40
2023-01-17T08:04:14.259Z,1.50
2023-01-17T08:06:42.839Z,1.40
2023-01-17T08:09:09.988Z,1.40
2023-01-17T08:11:36.903Z,1.40
2023-01-17T08:14:03.804Z,1.40
2023-01-17T08:16:30.930Z,1.30
2023-01-17T08:18:57.912Z,1.30
2023-01-17T08:21:24.886Z,1.30
2023-01-17T08:23:52.449Z,1.30
2023-01-17T08:26:23.101Z,1.20
2023-01-17T08:28:55.111Z,1.20
2023-01-17T08:31:22.513Z,1.20
2023-01-17T08:33:49.505Z,1.20
2023-01-17T08:36:16.496Z,1.20
2023-01-17T08:38:43.501Z,1.20
2023-01-17T08:41:10.451Z,1.20
2023-01-17T08:43:37.449Z,1.20
2023-01-17T08:46:06.597Z,1.20
2023-01-17T08:48:33.665Z,1.20
2023-01-17T08:51:01.454Z,1.20
2023-01-17T08:53:28.978Z,1.20
2023-01-17T08:55:59.924Z,1.20
2023-01-17T08:58:30.327Z,1.20
2023-01-17T09:01:05.023Z,1.20
2023-01-17T09:03:32.894Z,1.20
2023-01-17T09:06:02.627Z,1.20
2023-01-17T09:08:30.563Z,1.20
2023-01-17T09:10:57.680Z,1.20
2023-01-17T09:13:24.863Z,2.40
2023-01-17T09:15:58.744Z,1.20
2023-01-17T09:18:26.079Z,1.20
2023-01-17T09:20:56.008Z,1.20
2023-01-17T09:23:23.357Z,1.20
2023-01-17T09:25:58.149Z,1.30
2023-01-17T09:28:25.352Z,1.30
2023-01-17T09:30:52.576Z,1.40
2023-01-17T09:33:20.103Z,1.50
2023-01-17T09:35:47.567Z,1.50
2023-01-17T09:38:14.643Z,1.50
2023-01-17T09:41:05.186Z,1.60
2023-01-17T09:44:01.480Z,1.50
2023-01-17T09:46:33.934Z,1.50
2023-01-17T09:49:06.786Z,1.60
2023-01-17T09:51:33.881Z,1.50
2023-01-17T09:54:02.560Z,1.50
2023-01-17T09:56:31.863Z,1.50
2023-01-17T09:59:02.050Z,1.60
2023-01-17T10:01:36.745Z,1.60
2023-01-17T10:04:06.573Z,1.50
2023-01-17T10:06:40.907Z,1.50
2023-01-17T10:09:08.324Z,1.50
2023-01-17T10:11:47.273Z,1.60
2023-01-17T10:14:20.466Z,1.60
2023-01-17T10:16:55.421Z,1.50
2023-01-17T10:19:25.528Z,1.50
2023-01-17T10:22:11.187Z,1.50
2023-01-17T10:24:52.050Z,1.50
2023-01-17T10:27:25.193Z,1.50
2023-01-17T10:29:52.412Z,1.60
2023-01-17T10:32:19.763Z,1.60
2023-01-17T10:34:48.904Z,1.60
2023-01-17T10:37:48.391Z,1.70
2023-01-17T10:40:22.635Z,1.70
2023-01-17T10:42:53.845Z,1.70
2023-01-17T10:45:29.319Z,1.80
2023-01-17T10:48:11.893Z,1.80
2023-01-17T10:50:46.867Z,1.80
2023-01-17T10:53:35.009Z,1.80
2023-01-17T10:56:02.715Z,1.80
2023-01-17T10:58:29.681Z,1.80
2023-01-17T11:01:00.913Z,1.80
2023-01-17T11:03:28.888Z,1.90
2023-01-17T11:06:28.424Z,1.90
2023-01-17T11:08:59.229Z,1.90
2023-01-17T11:11:31.050Z,1.90
2023-01-17T11:14:01.390Z,1.90
2023-01-17T11:16:31.536Z,2.00
2023-01-17T11:19:10.802Z,2.00
2023-01-17T11:21:39.568Z,2.00
2023-01-17T11:24:10.874Z,2.00
2023-01-17T11:26:38.879Z,2.00
2023-01-17T11:29:41.263Z,2.00
2023-01-17T11:32:34.290Z,2.00
2023-01-17T11:35:13.520Z,2.00
2023-01-17T11:37:48.970Z,2.00
2023-01-17T11:40:15.889Z,2.00
2023-01-17T11:42:42.868Z,2.00
2023-01-17T11:45:26.646Z,2.00
2023-01-17T11:48:19.869Z,2.00
2023-01-17T11:50:53.890Z,2.00
2023-01-17T11:53:23.856Z,2.00
2023-01-17T11:55:54.100Z,2.00
2023-01-17T11:58:21.314Z,2.00
2023-01-17T12:00:50.771Z,2.00
2023-01-17T12:03:40.792Z,2.00
2023-01-17T12:06:11.992Z,2.00
2023-01-17T12:08:51.527Z,2.10
2023-01-17T12:11:23.038Z,2.10
2023-01-17T12:14:02.128Z,2.10
2023-01-17T12:16:32.100Z,2.10
2023-01-17T12:19:18.695Z,2.10
2023-01-17T12:22:00.410Z,2.10
2023-01-17T12:24:33.813Z,2.10
2023-01-17T12:27:06.552Z,2.10
2023-01-17T12:29:52.197Z,2.10
2023-01-17T12:32:21.992Z,2.10
2023-01-17T12:34:50.994Z,2.20
2023-01-17T12:37:17.974Z,2.20
2023-01-17T12:39:51.328Z,2.20
2023-01-17T12:42:20.271Z,2.20
2023-01-17T12:44:51.920Z,2.20
2023-01-17T12:47:19.999Z,2.20
2023-01-17T12:49:46.979Z,2.20
2023-01-17T12:52:21.748Z,2.20
2023-01-17T12:54:51.361Z,2.20
2023-01-17T12:57:21.001Z,2.20
2023-01-17T13:00:00.049Z,2.20
2023-01-17T13:02:37.498Z,2.30
2023-01-17T13:05:17.396Z,2.20
2023-01-17T13:07:56.622Z,2.30
2023-01-17T13:10:31.902Z,2.30
2023-01-17T13:13:03.125Z,2.30
2023-01-17T13:15:36.153Z,2.30
2023-01-17T13:18:03.134Z,2.30
2023-01-17T13:20:32.011Z,2.30
2023-01-17T13:23:08.471Z,2.40
2023-01-17T13:25:50.744Z,2.40
2023-01-17T13:28:22.724Z,2.40
2023-01-17T13:30:55.914Z,2.40
2023-01-17T13:33:22.843Z,2.40
2023-01-17T13:35:58.379Z,2.40
2023-01-17T13:38:28.275Z,2.40
2023-01-17T13:40:55.184Z,2.40
2023-01-17T13:43:26.757Z,2.50
2023-01-17T13:45:55.244Z,2.50
2023-01-17T13:48:22.194Z,2.50
2023-01-17T13:50:53.278Z,2.50
2023-01-17T13:53:29.455Z,2.50
2023-01-17T13:56:22.862Z,2.50
2023-01-17T13:58:57.090Z,2.50
2023-01-17T14:01:24.188Z,2.50
2023-01-17T14:03:51.395Z,2.50
2023-01-17T14:06:35.421Z,2.50
2023-01-17T14:09:05.189Z,2.50
2023-01-17T14:11:32.817Z,2.60
2023-01-17T14:14:19.774Z,2.60
2023-01-17T14:16:46.797Z,2.60
2023-01-17T14:19:26.748Z,2.60
2023-01-17T14:22:13.586Z,2.60
2023-01-17T14:25:15.840Z,2.60
2023-01-17T14:27:42.824Z,2.60
2023-01-17T14:30:15.835Z,2.60
2023-01-17T14:32:43.392Z,2.60
2023-01-17T14:35:21.117Z,2.60
2023-01-17T14:37:51.260Z,2.60
2023-01-17T14:40:20.471Z,2.60
2023-01-17T14:42:49.431Z,2.60
2023-01-17T14:45:22.556Z,2.60
2023-01-17T14:47:52.007Z,2.60
2023-01-17T14:50:22.623Z,2.60
2023-01-17T14:53:08.398Z,2.60
2023-01-17T14:55:35.773Z,2.60
2023-01-17T14:58:05.891Z,2.60
2023-01-17T15:00:38.502Z,2.60
2023-01-17T15:03:05.529Z,2.60
2023-01-17T15:05:32.957Z,2.60
2023-01-17T15:08:00.087Z,1.20
2023-01-17T15:10:28.995Z,2.60
2023-01-17T15:12:59.091Z,2.60
2023-01-17T15:15:30.491Z,2.60
2023-01-17T15:18:15.683Z,2.70
2023-01-17T15:20:43.802Z,2.60
2023-01-17T15:23:14.576Z,2.60
2023-01-17T15:25:42.067Z,2.70
2023-01-17T15:28:12.785Z,2.70
2023-01-17T15:31:00.051Z,2.60
2023-01-17T15:33:27.491Z,2.70
2023-01-17T15:36:04.521Z,2.70
2023-01-17T15:38:38.602Z,2.70
2023-01-17T15:41:10.567Z,2.70
2023-01-17T15:43:38.033Z,2.70
2023-01-17T15:46:05.211Z,2.70
2023-01-17T15:48:40.802Z,2.70
2023-01-17T15:51:08.574Z,2.70
2023-01-17T15:53:37.347Z,2.70
2023-01-17T15:56:22.975Z,2.70
2023-01-17T15:58:50.427Z,2.70
2023-01-17T16:01:18.289Z,2.70
2023-01-17T16:03:55.390Z,2.80
2023-01-17T16:06:48.608Z,2.80
2023-01-17T16:09:22.656Z,2.80
2023-01-17T16:11:49.783Z,2.80
2023-01-17T16:14:17.823Z,2.80
2023-01-17T16:16:54.376Z,2.80
2023-01-17T16:19:21.680Z,2.80
2023-01-17T16:21:48.644Z,2.80
2023-01-17T16:24:15.836Z,2.90
2023-01-17T16:26:43.307Z,2.90
2023-01-17T16:29:10.350Z,2.90
2023-01-17T16:31:37.409Z,2.90
2023-01-17T16:34:09.910Z,2.90
2023-01-17T16:36:37.098Z,2.90
2023-01-17T16:39:04.150Z,2.90
2023-01-17T16:41:31.150Z,2.90
2023-01-17T16:44:02.224Z,3.00
2023-01-17T16:46:30.060Z,3.00
2023-01-17T16:48:58.789Z,3.00
2023-01-17T16:51:25.831Z,3.00
2023-01-17T16:53:53.878Z,3.00
2023-01-17T16:56:20.884Z,3.00
2023-01-17T16:58:47.864Z,3.00
2023-01-17T17:01:16.200Z,3.00
2023-01-17T17:03:43.867Z,3.10
2023-01-17T17:06:11.178Z,3.10
2023-01-17T17:08:39.839Z,3.10
2023-01-17T17:11:16.945Z,3.10
2023-01-17T17:13:45.235Z,3.10
2023-01-17T17:16:15.003Z,3.20
2023-01-17T17:18:42.513Z,3.20
2023-01-17T17:21:09.516Z,3.20
2023-01-17T17:23:36.737Z,3.20
2023-01-17T17:26:04.106Z,3.20
2023-01-17T17:28:31.189Z,3.20
2023-01-17T17:31:01.927Z,3.20
2023-01-17T17:33:29.167Z,3.20
2023-01-17T17:36:01.011Z,3.20
2023-01-17T17:38:27.917Z,3.20
2023-01-17T17:40:55.056Z,3.20
2023-01-17T17:43:22.068Z,3.20
2023-01-17T17:45:49.768Z,3.30
2023-01-17T17:48:16.718Z,3.30
2023-01-17T17:50:43.728Z,3.30
2023-01-17T17:53:10.702Z,3.30
2023-01-17T17:55:40.213Z,3.30
2023-01-17T17:58:07.338Z,3.30
2023-01-17T18:00:34.324Z,3.30
2023-01-17T18:03:01.701Z,3.30
2023-01-17T18:05:28.699Z,3.30
2023-01-17T18:07:56.086Z,3.40
2023-01-17T18:10:23.216Z,3.40
2023-01-17T18:12:50.708Z,3.40
2023-01-17T18:15:18.667Z,3.40
2023-01-17T18:17:45.638Z,3.40
2023-01-17T18:20:12.680Z,3.40
2023-01-17T18:22:40.180Z,3.40
2023-01-17T18:25:07.462Z,3.50
2023-01-17T18:27:34.555Z,3.50
2023-01-17T18:30:01.497Z,3.50
2023-01-17T18:32:28.440Z,3.50
2023-01-17T18:34:55.423Z,3.50
2023-01-17T18:37:23.354Z,3.50
2023-01-17T18:39:50.324Z,3.50
2023-01-17T18:42:17.343Z,3.50
2023-01-17T18:44:44.327Z,3.50
2023-01-17T18:47:13.250Z,3.50
2023-01-17T18:49:40.341Z,3.50
2023-01-17T18:52:09.370Z,3.50
2023-01-17T18:54:36.330Z,3.60
2023-01-17T18:57:03.382Z,3.60
2023-01-17T18:59:30.503Z,3.60
2023-01-17T19:01:58.961Z,5.10
2023-01-17T19:04:28.600Z,3.60
2023-01-17T19:06:55.877Z,3.60
2023-01-17T19:09:23.068Z,3.60
2023-01-17T19:11:50.342Z,3.70
2023-01-17T19:14:17.376Z,3.70
2023-01-17T19:16:45.194Z,3.70
2023-01-17T19:19:14.101Z,3.60
2023-01-17T19:21:41.184Z,3.60
2023-01-17T19:24:08.464Z,3.70
2023-01-17T19:26:35.907Z,3.70
2023-01-17T19:29:06.957Z,3.60
2023-01-17T19:31:37.376Z,3.70
2023-01-17T19:34:04.753Z,3.70
2023-01-17T19:36:33.977Z,3.80
2023-01-17T19:39:05.876Z,3.80
2023-01-17T19:41:34.783Z,3.80
2023-01-17T19:44:03.572Z,3.80
2023-01-17T19:46:30.594Z,3.80
2023-01-17T19:48:57.967Z,3.80
2023-01-17T19:51:25.782Z,3.80
2023-01-17T19:53:53.874Z,3.80
2023-01-17T19:56:21.944Z,3.80
2023-01-17T19:58:48.954Z,3.80
2023-01-17T20:01:24.749Z,3.80
2023-01-17T20:03:52.103Z,3.80
2023-01-17T20:06:20.291Z,3.80
2023-01-17T20:08:47.293Z,3.80
2023-01-17T20:11:15.917Z,3.80
2023-01-17T20:13:42.942Z,3.90
2023-01-17T20:16:11.482Z,3.90
2023-01-17T20:18:38.733Z,3.90
2023-01-17T20:21:08.844Z,3.90
2023-01-17T20:23:36.665Z,3.90
2023-01-17T20:26:04.796Z,3.90
2023-01-17T20:28:35.380Z,3.90
2023-01-17T20:31:09.450Z,3.90
2023-01-17T20:33:36.851Z,3.90
2023-01-17T20:36:10.930Z,3.90
2023-01-17T20:38:44.964Z,3.90
2023-01-17T20:41:14.743Z,3.90
2023-01-17T20:43:42.556Z,3.90
2023-01-17T20:46:09.944Z,3.90
2023-01-17T20:48:39.313Z,3.90
2023-01-17T20:51:07.643Z,3.90
2023-01-17T20:53:35.230Z,3.90
2023-01-17T20:56:02.304Z,3.90
2023-01-17T20:58:30.797Z,3.90
2023-01-17T21:00:58.305Z,3.90
2023-01-17T21:03:29.010Z,3.90
2023-01-17T21:06:01.886Z,3.90
2023-01-17T21:08:29.922Z,3.90
2023-01-17T21:10:57.138Z,3.90
2023-01-17T21:13:24.604Z,3.90
2023-01-17T21:15:52.263Z,3.90
2023-01-17T21:18:20.468Z,3.90
2023-01-17T21:20:47.473Z,3.90
2023-01-17T21:23:29.372Z,3.90
2023-01-17T21:25:57.626Z,3.90
2023-01-17T21:28:25.543Z,3.90
2023-01-17T21:30:52.720Z,3.90
2023-01-17T21:33:20.327Z,3.90
2023-01-17T21:35:47.303Z,3.80
2023-01-17T21:38:14.644Z,3.80
2023-01-17T21:40:42.868Z,3.80
2023-01-17T21:43:09.944Z,3.80
2023-01-17T21:45:40.731Z,3.80
2023-01-17T21:48:08.343Z,3.80
2023-01-17T21:50:35.296Z,3.80
2023-01-17T21:53:02.956Z,3.80
2023-01-17T21:55:48.582Z,3.90
2023-01-17T21:58:35.366Z,3.80
2023-01-17T22:01:17.796Z,3.80
2023-01-17T22:03:47.482Z,3.80
2023-01-17T22:06:14.496Z,3.80
2023-01-17T22:08:41.517Z,3.80
2023-01-17T22:11:10.950Z,3.80
2023-01-17T22:13:38.395Z,3.80
2023-01-17T22:16:07.400Z,3.80
2023-01-17T22:18:39.171Z,3.80
2023-01-17T22:21:07.879Z,3.80
2023-01-17T22:23:35.582Z,3.80
2023-01-17T22:26:04.069Z,3.80
2023-01-17T22:28:32.178Z,3.80
2023-01-17T22:31:21.010Z,3.70
2023-01-17T22:33:51.945Z,3.80
2023-01-17T22:36:19.016Z,3.70
2023-01-17T22:38:46.966Z,3.70
2023-01-17T22:41:16.328Z,3.70
2023-01-17T22:43:50.399Z,3.70
2023-01-17T22:46:19.023Z,3.70
2023-01-17T22:48:46.355Z,3.70
2023-01-17T22:51:14.621Z,3.70
2023-01-17T22:53:42.616Z,3.60
2023-01-17T22:56:12.425Z,3.70
2023-01-17T22:58:42.414Z,3.60
2023-01-17T23:01:13.136Z,3.70
2023-01-17T23:03:41.084Z,3.60
2023-01-17T23:06:15.792Z,3.60
2023-01-17T23:08:44.684Z,3.60
2023-01-17T23:11:41.045Z,3.60
2023-01-17T23:14:14.355Z,3.60
2023-01-17T23:17:01.921Z,3.60
2023-01-17T23:19:30.429Z,3.60
2023-01-17T23:22:16.867Z,3.60
2023-01-17T23:24:45.553Z,3.60
2023-01-17T23:27:32.983Z,3.60
2023-01-17T23:30:00.055Z,3.60
2023-01-17T23:32:27.134Z,3.60
2023-01-17T23:34:54.288Z,3.60
2023-01-17T23:37:21.264Z,3.60
2023-01-17T23:39:48.232Z,3.60
2023-01-17T23:42:34.309Z,3.60
2023-01-17T23:45:01.353Z,3.70
2023-01-17T23:47:28.316Z,3.60
2023-01-17T23:49:55.417Z,3.60
2023-01-17T23:52:22.416Z,3.60
2023-01-17T23:54:49.458Z,3.60
2023-01-17T23:57:16.585Z,3.60
2023-01-17T23:59:43.620Z,3.60
